createdAt,value
2023-02-23T00:00:44.885Z,18.60
2023-02-23T00:05:53.092Z,23.03
2023-02-23T00:10:59.000Z,46.17
2023-02-23T00:16:06.667Z,36.33
2023-02-23T00:21:09.896Z,30.77
2023-02-23T00:26:14.088Z,23.17
2023-02-23T00:31:18.380Z,21.93
2023-02-23T00:36:24.660Z,22.70
2023-02-23T00:41:31.537Z,28.57
2023-02-23T00:46:35.283Z,23.80
2023-02-23T00:51:39.771Z,25.33
2023-02-23T00:56:43.559Z,24.60
2023-02-23T01:01:47.101Z,24.80
2023-02-23T01:06:50.386Z,22.27
2023-02-23T01:11:53.629Z,13.47
2023-02-23T01:16:56.812Z,20.70
2023-02-23T01:22:02.596Z,18.43
2023-02-23T01:27:05.815Z,19.43
2023-02-23T01:32:09.538Z,24.10
2023-02-23T01:37:13.334Z,16.53
2023-02-23T01:42:16.555Z,16.50
2023-02-23T01:47:20.756Z,21.47
2023-02-23T01:52:24.517Z,18.87
2023-02-23T01:57:27.722Z,19.17
2023-02-23T02:02:34.119Z,23.27
2023-02-23T02:07:39.953Z,23.50
2023-02-23T02:12:52.924Z,20.77
2023-02-23T02:18:31.155Z,20.20
2023-02-23T02:24:08.501Z,18.97
2023-02-23T02:29:20.607Z,25.13
2023-02-23T02:35:01.178Z,22.70
2023-02-23T02:40:23.118Z,25.53
2023-02-23T02:45:39.186Z,20.70
2023-02-23T02:50:57.968Z,25.83
2023-02-23T02:56:06.534Z,16.97
2023-02-23T03:01:33.650Z,17.93
2023-02-23T03:07:11.075Z,11.50
2023-02-23T03:12:48.023Z,11.60
2023-02-23T03:18:32.696Z,11.70
2023-02-23T03:24:22.204Z,12.53
2023-02-23T03:30:04.361Z,17.00
2023-02-23T03:35:35.632Z,16.50
2023-02-23T03:41:00.982Z,17.63
2023-02-23T03:46:27.384Z,21.17
2023-02-23T03:51:52.642Z,15.67
2023-02-23T03:57:18.193Z,13.43
2023-02-23T04:02:41.706Z,10.60
2023-02-23T04:08:08.428Z,12.37
2023-02-23T04:13:18.350Z,17.03
2023-02-23T04:18:29.010Z,16.87
2023-02-23T04:23:32.860Z,20.80
2023-02-23T04:28:36.205Z,14.37
2023-02-23T04:33:39.808Z,16.07
2023-02-23T04:38:43.309Z,19.87
2023-02-23T04:43:46.478Z,31.30
2023-02-23T04:48:49.919Z,15.97
2023-02-23T04:53:53.303Z,13.50
2023-02-23T04:58:56.493Z,17.57
2023-02-23T05:04:00.783Z,19.93
2023-02-23T05:09:06.665Z,17.30
2023-02-23T05:14:11.353Z,15.43
2023-02-23T05:19:14.755Z,12.77
2023-02-23T05:24:19.267Z,10.93
2023-02-23T05:29:22.663Z,15.07
2023-02-23T05:34:25.938Z,15.00
2023-02-23T05:39:29.234Z,10.93
2023-02-23T05:44:32.631Z,13.60
2023-02-23T05:49:35.961Z,16.70
2023-02-23T05:54:39.200Z,13.47
2023-02-23T05:59:42.492Z,18.03
2023-02-23T06:04:47.244Z,14.23
2023-02-23T06:09:50.467Z,12.73
2023-02-23T06:14:53.723Z,13.27
2023-02-23T06:19:57.019Z,10.87
2023-02-23T06:25:00.407Z,17.17
2023-02-23T06:30:03.911Z,13.57
2023-02-23T06:35:08.622Z,11.80
2023-02-23T06:40:12.316Z,13.37
2023-02-23T06:45:15.499Z,13.03
2023-02-23T06:50:18.818Z,14.27
2023-02-23T06:55:22.057Z,11.37
2023-02-23T07:00:25.362Z,15.07
2023-02-23T07:05:29.111Z,10.07
2023-02-23T07:10:32.721Z,7.83
2023-02-23T07:15:37.642Z,12.80
2023-02-23T07:20:41.786Z,12.37
2023-02-23T07:25:45.510Z,12.87
2023-02-23T07:30:50.321Z,16.80
2023-02-23T07:35:53.566Z,14.43
2023-02-23T07:40:56.866Z,12.80
2023-02-23T07:46:02.036Z,14.67
2023-02-23T07:51:11.420Z,14.57
2023-02-23T07:56:14.794Z,19.10
2023-02-23T08:01:18.886Z,27.83
2023-02-23T08:06:22.606Z,19.50
2023-02-23T08:11:29.064Z,13.27
2023-02-23T08:16:34.509Z,15.27
2023-02-23T08:21:37.795Z,19.10
2023-02-23T08:26:41.858Z,9.77
2023-02-23T08:31:45.442Z,12.93
2023-02-23T08:36:49.826Z,15.60
2023-02-23T08:41:56.041Z,10.17
2023-02-23T08:46:59.524Z,10.67
2023-02-23T08:52:08.272Z,13.60
2023-02-23T08:57:20.297Z,15.33
2023-02-23T09:02:24.228Z,15.30
2023-02-23T09:07:29.913Z,15.50
2023-02-23T09:12:33.269Z,13.67
2023-02-23T09:17:37.151Z,14.70
2023-02-23T09:22:49.024Z,17.27
2023-02-23T09:27:56.850Z,15.27
2023-02-23T09:32:59.936Z,15.97
2023-02-23T09:38:05.479Z,16.17
2023-02-23T09:43:41.311Z,17.60
2023-02-23T09:48:45.367Z,15.73
2023-02-23T09:53:58.180Z,14.37
2023-02-23T09:59:02.177Z,22.00
2023-02-23T10:04:29.253Z,18.27
2023-02-23T10:09:45.178Z,14.73
2023-02-23T10:14:57.624Z,16.97
2023-02-23T10:20:13.916Z,16.40
2023-02-23T10:25:24.595Z,17.13
2023-02-23T10:30:30.593Z,20.03
2023-02-23T10:35:34.567Z,20.83
2023-02-23T10:40:37.927Z,20.83
2023-02-23T10:45:53.481Z,16.53
2023-02-23T10:51:03.288Z,16.60
2023-02-23T10:56:13.185Z,22.33
2023-02-23T11:02:01.077Z,19.23
2023-02-23T11:07:18.552Z,22.07
2023-02-23T11:12:31.112Z,21.43
2023-02-23T11:17:37.220Z,16.90
2023-02-23T11:22:42.859Z,18.83
2023-02-23T11:27:51.917Z,18.67
2023-02-23T11:32:59.205Z,18.50
2023-02-23T11:38:21.159Z,17.97
2023-02-23T11:43:24.381Z,20.80
2023-02-23T11:48:49.999Z,19.33
2023-02-23T11:53:53.692Z,19.83
2023-02-23T11:59:03.682Z,19.80
2023-02-23T12:04:10.276Z,17.83
2023-02-23T12:09:30.003Z,22.73
2023-02-23T12:14:40.668Z,20.00
2023-02-23T12:19:54.016Z,22.33
2023-02-23T12:25:11.758Z,22.10
2023-02-23T12:30:28.486Z,19.37
2023-02-23T12:35:49.734Z,20.57
2023-02-23T12:40:57.419Z,21.33
2023-02-23T12:46:21.232Z,19.13
2023-02-23T12:51:47.983Z,22.83
2023-02-23T12:57:12.508Z,22.87
2023-02-23T13:02:39.369Z,22.63
2023-02-23T13:08:12.801Z,19.37
2023-02-23T13:13:44.830Z,30.23
2023-02-23T13:19:11.442Z,20.77
2023-02-23T13:24:44.453Z,25.97
2023-02-23T13:29:50.315Z,26.10
2023-02-23T13:35:07.153Z,24.73
2023-02-23T13:40:31.965Z,20.43
2023-02-23T13:45:59.037Z,21.70
2023-02-23T13:51:18.547Z,18.20
2023-02-23T13:56:26.031Z,19.87
2023-02-23T14:01:34.148Z,22.47
2023-02-23T14:06:37.769Z,22.57
2023-02-23T14:12:04.006Z,23.40
2023-02-23T14:17:17.888Z,25.03
2023-02-23T14:22:22.691Z,25.40
2023-02-23T14:27:43.888Z,26.47
2023-02-23T14:32:49.183Z,23.30
2023-02-23T14:38:00.218Z,18.70
2023-02-23T14:43:04.714Z,30.00
2023-02-23T14:48:18.797Z,19.60
2023-02-23T14:53:25.773Z,22.60
2023-02-23T14:58:35.692Z,25.63
2023-02-23T15:03:39.688Z,30.97
2023-02-23T15:08:46.290Z,26.27
2023-02-23T15:13:51.290Z,26.67
2023-02-23T15:19:32.596Z,34.00
2023-02-23T15:24:47.877Z,28.03
2023-02-23T15:29:52.250Z,27.90
2023-02-23T15:35:03.956Z,37.03
2023-02-23T15:40:15.638Z,42.40
2023-02-23T15:45:43.984Z,31.40
2023-02-23T15:50:57.911Z,34.47
2023-02-23T15:56:06.477Z,26.13
2023-02-23T16:01:13.569Z,33.93
2023-02-23T16:06:25.003Z,29.00
2023-02-23T16:11:44.096Z,26.30
2023-02-23T16:17:01.329Z,30.70
2023-02-23T16:22:25.346Z,33.10
2023-02-23T16:27:30.633Z,42.67
2023-02-23T16:32:38.764Z,39.50
2023-02-23T16:38:02.036Z,39.03
2023-02-23T16:43:06.505Z,36.60
2023-02-23T16:48:22.014Z,42.27
2023-02-23T16:53:27.195Z,32.47
2023-02-23T16:58:34.553Z,39.37
2023-02-23T17:03:47.354Z,31.33
2023-02-23T17:08:58.544Z,31.37
2023-02-23T17:14:03.678Z,35.00
2023-02-23T17:19:09.619Z,51.00
2023-02-23T17:24:15.039Z,50.23
2023-02-23T17:29:21.146Z,43.93
2023-02-23T17:34:28.007Z,52.60
2023-02-23T17:39:37.220Z,51.50
2023-02-23T17:44:48.457Z,58.63
2023-02-23T17:49:58.631Z,82.57
2023-02-23T17:55:10.578Z,46.23
2023-02-23T18:00:21.383Z,47.23
2023-02-23T18:05:29.123Z,46.43
2023-02-23T18:10:38.986Z,41.83
2023-02-23T18:16:01.398Z,34.07
2023-02-23T18:21:18.876Z,35.03
2023-02-23T18:26:28.561Z,38.93
2023-02-23T18:31:36.537Z,46.47
2023-02-23T18:36:45.336Z,53.03
2023-02-23T18:41:52.899Z,53.13
2023-02-23T18:47:02.682Z,50.67
2023-02-23T18:52:12.851Z,43.03
2023-02-23T18:57:20.160Z,50.77
2023-02-23T19:02:34.285Z,45.27
2023-02-23T19:07:47.025Z,47.43
2023-02-23T19:13:02.929Z,47.70
2023-02-23T19:18:14.063Z,42.90
2023-02-23T19:23:23.980Z,41.67
2023-02-23T19:28:39.806Z,41.27
2023-02-23T19:33:55.570Z,43.03
2023-02-23T19:39:13.926Z,45.03
2023-02-23T19:44:25.356Z,59.37
2023-02-23T19:49:35.032Z,59.43
2023-02-23T19:54:45.260Z,57.27
2023-02-23T19:59:54.616Z,48.73
2023-02-23T20:05:02.377Z,48.53
2023-02-23T20:10:11.424Z,60.20
2023-02-23T20:15:18.742Z,64.90
2023-02-23T20:20:30.551Z,68.67
2023-02-23T20:25:36.567Z,66.20
2023-02-23T20:30:48.327Z,47.87
2023-02-23T20:35:54.351Z,48.50
2023-02-23T20:40:59.908Z,41.87
2023-02-23T20:46:05.135Z,48.67
2023-02-23T20:51:14.965Z,44.93
2023-02-23T20:56:23.142Z,51.30
2023-02-23T21:01:28.354Z,46.60
2023-02-23T21:06:33.619Z,44.73
2023-02-23T21:11:39.559Z,50.40
2023-02-23T21:16:47.615Z,47.27
2023-02-23T21:21:59.056Z,43.20
2023-02-23T21:27:06.347Z,50.90
2023-02-23T21:32:17.342Z,47.47
2023-02-23T21:37:21.633Z,46.47
2023-02-23T21:42:25.487Z,54.50
2023-02-23T21:47:29.288Z,49.30
2023-02-23T21:52:34.733Z,55.93
2023-02-23T21:57:39.635Z,50.77
2023-02-23T22:02:46.959Z,53.37
2023-02-23T22:07:52.437Z,52.80
2023-02-23T22:12:57.149Z,55.57
2023-02-23T22:18:00.605Z,52.27
2023-02-23T22:23:03.728Z,55.40
2023-02-23T22:28:10.926Z,60.40
2023-02-23T22:33:14.048Z,55.53
2023-02-23T22:38:20.365Z,55.27
2023-02-23T22:43:23.494Z,56.23
2023-02-23T22:48:29.187Z,53.87
2023-02-23T22:53:32.486Z,59.43
2023-02-23T22:58:36.606Z,62.90
2023-02-23T23:03:47.796Z,60.27
2023-02-23T23:08:52.963Z,61.27
2023-02-23T23:14:09.582Z,65.37
2023-02-23T23:19:12.811Z,59.97
2023-02-23T23:24:16.229Z,60.13
2023-02-23T23:29:19.456Z,68.87
2023-02-23T23:34:22.654Z,60.87
2023-02-23T23:39:26.516Z,61.83
2023-02-23T23:44:29.837Z,66.33
2023-02-23T23:49:41.256Z,58.27
2023-02-23T23:54:45.005Z,69.63
2023-02-23T23:59:49.227Z,68.13
